Flight Briefing for CPX327

Departure Arrival
Cincinnati/Northern Kentucky International Airport (KCVG)
Click to view FAA NOTAMS
Miami International Airport (KMIA)
Click to view FAA NOTAMS
Departure Time Arrival Time
N/A N/A
Aircraft Distance
B767-300BDSF 898nm
Departure METAR Arrival METAR
KCVG 271152Z 06006KT 10SM FEW060 SCT150 SCT250 21/16 A3007 RMK AO2 SLP173 70034 T02060161 10206 20183 51008 KMIA 271153Z 06007KT 10SM FEW025 27/20 A3007 RMK AO2 SLP182 T02720200 10272 20261 53011
Suggested Route
KENLN4 HYK VXV J43 ATL J89 OTK JUULI SSCOT5


View recent IFR Routes data
Notes



Charts and Procedures

Charts for KCVG
No chart available
Charts for KMIA
No chart available

Windy.com Weather Map